createdAt,value
2018-07-24T00:04:24.125Z,10.30
2018-07-24T00:08:58.325Z,9.10
2018-07-24T00:13:32.644Z,9.73
2018-07-24T00:18:08.091Z,9.40
2018-07-24T00:22:42.243Z,10.18
2018-07-24T00:27:17.556Z,10.45
2018-07-24T00:31:53.116Z,9.95
2018-07-24T00:36:27.487Z,9.53
2018-07-24T00:41:03.027Z,10.50
2018-07-24T00:45:37.263Z,11.78
2018-07-24T00:50:12.418Z,10.60
2018-07-24T00:54:47.778Z,10.70
2018-07-24T00:59:23.106Z,9.88
2018-07-24T01:03:58.811Z,10.18
2018-07-24T01:08:33.769Z,10.08
2018-07-24T01:13:08.228Z,10.15
2018-07-24T01:17:43.220Z,10.20
2018-07-24T01:22:17.375Z,10.53
2018-07-24T01:26:51.583Z,10.00
2018-07-24T01:31:25.767Z,10.53
2018-07-24T01:36:00.568Z,10.43
2018-07-24T01:40:34.395Z,10.00
2018-07-24T01:45:08.711Z,10.55
2018-07-24T01:49:43.579Z,10.15
2018-07-24T01:54:18.695Z,10.43
2018-07-24T01:58:54.915Z,11.73
2018-07-24T02:03:29.780Z,11.12
2018-07-24T02:08:05.222Z,10.78
2018-07-24T02:12:39.399Z,10.95
2018-07-24T02:17:14.600Z,10.50
2018-07-24T02:21:49.819Z,10.10
2018-07-24T02:26:25.390Z,10.45
2018-07-24T02:31:00.234Z,11.03
2018-07-24T02:35:34.524Z,11.45
2018-07-24T02:40:08.820Z,10.60
2018-07-24T02:44:42.834Z,11.80
2018-07-24T02:49:17.608Z,11.48
2018-07-24T02:53:52.107Z,11.50
2018-07-24T02:58:26.391Z,11.60
2018-07-24T03:03:02.700Z,11.33
2018-07-24T03:07:37.468Z,10.82
2018-07-24T03:12:12.404Z,11.25
2018-07-24T03:16:46.804Z,10.80
2018-07-24T03:21:21.634Z,11.25
2018-07-24T03:25:56.940Z,11.68
2018-07-24T03:30:32.735Z,11.57
2018-07-24T03:35:09.301Z,10.80
2018-07-24T03:39:43.892Z,11.48
2018-07-24T03:44:18.224Z,10.55
2018-07-24T03:48:52.515Z,10.90
2018-07-24T03:53:27.417Z,10.15
2018-07-24T03:58:01.682Z,10.28
2018-07-24T04:02:36.055Z,10.70
2018-07-24T04:07:11.280Z,9.98
2018-07-24T04:11:45.829Z,9.95
2018-07-24T04:16:19.902Z,10.60
2018-07-24T04:20:53.987Z,10.53
2018-07-24T04:25:29.525Z,9.90
2018-07-24T04:30:03.364Z,10.82
2018-07-24T04:34:38.112Z,9.48
2018-07-24T04:39:13.016Z,9.73
2018-07-24T04:43:47.283Z,9.20
2018-07-24T04:48:22.466Z,10.40
2018-07-24T04:52:57.683Z,9.55
2018-07-24T04:57:31.996Z,10.38
2018-07-24T05:02:06.903Z,10.70
2018-07-24T05:06:41.924Z,10.88
2018-07-24T05:11:16.612Z,11.35
2018-07-24T05:15:53.391Z,10.65
2018-07-24T05:20:28.138Z,11.78
2018-07-24T05:25:02.588Z,11.28
2018-07-24T05:29:37.831Z,13.45
2018-07-24T05:34:12.153Z,12.15
2018-07-24T05:38:47.084Z,12.43
2018-07-24T05:43:22.011Z,12.70
2018-07-24T05:47:56.326Z,13.03
2018-07-24T05:52:31.260Z,12.47
2018-07-24T05:57:06.923Z,12.45
2018-07-24T06:01:41.920Z,12.53
2018-07-24T06:06:16.679Z,12.93
2018-07-24T06:10:51.808Z,11.50
2018-07-24T06:15:27.017Z,11.73
2018-07-24T06:20:01.216Z,11.25
2018-07-24T06:24:36.227Z,12.37
2018-07-24T06:29:11.273Z,13.10
2018-07-24T06:33:45.488Z,12.50
2018-07-24T06:38:20.924Z,11.55
2018-07-24T06:42:55.404Z,10.90
2018-07-24T06:47:30.288Z,10.40
2018-07-24T06:52:04.520Z,10.00
2018-07-24T06:56:38.929Z,10.43
2018-07-24T07:01:13.145Z,11.60
2018-07-24T07:05:48.263Z,10.78
2018-07-24T07:10:22.837Z,8.95
2018-07-24T07:14:57.852Z,9.08
2018-07-24T07:19:32.012Z,9.15
2018-07-24T07:24:06.380Z,9.68
2018-07-24T07:28:41.079Z,9.03
2018-07-24T07:33:15.510Z,9.33
2018-07-24T07:37:50.702Z,10.00
2018-07-24T07:42:25.100Z,8.88
2018-07-24T07:47:00.807Z,8.50
2018-07-24T07:51:35.228Z,8.13
2018-07-24T07:56:09.611Z,8.48
2018-07-24T08:00:44.880Z,8.35
2018-07-24T08:05:19.771Z,9.30
2018-07-24T08:09:54.887Z,8.80
2018-07-24T08:14:29.051Z,9.10
2018-07-24T08:19:03.952Z,8.30
2018-07-24T08:23:39.142Z,8.53
2018-07-24T08:28:14.747Z,8.05
2018-07-24T08:32:49.096Z,8.78
2018-07-24T08:37:24.463Z,8.20
2018-07-24T08:41:58.799Z,8.03
2018-07-24T08:46:33.244Z,8.43
2018-07-24T08:51:07.383Z,8.68
2018-07-24T08:55:43.701Z,7.67
2018-07-24T09:00:17.891Z,7.83
2018-07-24T09:04:52.079Z,8.80
2018-07-24T09:09:28.275Z,8.00
2018-07-24T09:14:03.132Z,7.58
2018-07-24T09:18:37.416Z,6.95
2018-07-24T09:23:13.295Z,6.30
2018-07-24T09:27:48.743Z,5.87
2018-07-24T09:32:23.694Z,6.20
2018-07-24T09:36:57.958Z,6.33
2018-07-24T09:41:32.148Z,5.92
2018-07-24T09:46:06.689Z,6.00
2018-07-24T09:50:40.899Z,5.95
2018-07-24T09:55:16.523Z,5.85
2018-07-24T09:59:50.800Z,5.97
2018-07-24T10:04:25.188Z,6.28
2018-07-24T10:09:00.364Z,5.75
2018-07-24T10:13:35.390Z,6.22
2018-07-24T10:18:09.728Z,5.65
2018-07-24T10:22:43.968Z,5.37
2018-07-24T10:27:18.105Z,6.20
2018-07-24T10:31:52.392Z,5.87
2018-07-24T10:36:27.557Z,5.80
2018-07-24T10:41:01.741Z,5.58
2018-07-24T10:45:35.951Z,5.58
2018-07-24T10:50:10.244Z,5.25
2018-07-24T10:54:45.314Z,5.75
2018-07-24T10:59:19.339Z,5.10
2018-07-24T11:03:54.620Z,6.03
2018-07-24T11:08:29.511Z,5.65
2018-07-24T11:13:04.388Z,7.83
2018-07-24T11:17:38.569Z,5.78
2018-07-24T11:22:12.845Z,5.33
2018-07-24T11:26:48.371Z,4.80
2018-07-24T11:31:23.464Z,5.30
2018-07-24T11:35:58.672Z,5.60
2018-07-24T11:40:32.714Z,5.87
2018-07-24T11:45:07.310Z,6.20
2018-07-24T11:49:41.512Z,5.72
2018-07-24T11:54:15.880Z,5.65
2018-07-24T11:58:50.727Z,5.65
2018-07-24T12:03:25.536Z,5.67
2018-07-24T12:07:59.899Z,5.75
2018-07-24T12:12:34.167Z,6.00
2018-07-24T12:17:08.376Z,6.12
2018-07-24T12:21:43.195Z,5.75
2018-07-24T12:26:17.564Z,6.40
2018-07-24T12:30:51.744Z,6.22
2018-07-24T12:35:26.085Z,5.22
2018-07-24T12:40:01.100Z,6.12
2018-07-24T12:44:35.019Z,5.33
2018-07-24T12:49:09.660Z,5.40
2018-07-24T12:53:44.291Z,5.87
2018-07-24T12:58:18.833Z,5.87
2018-07-24T13:02:53.140Z,5.90
2018-07-24T13:07:27.362Z,6.58
2018-07-24T13:12:01.804Z,5.72
2018-07-24T13:16:36.333Z,6.30
2018-07-24T13:21:10.460Z,6.35
2018-07-24T13:25:45.696Z,6.20
2018-07-24T13:30:19.889Z,5.83
2018-07-24T13:34:54.855Z,6.10
2018-07-24T13:39:29.055Z,5.78
2018-07-24T13:44:03.671Z,5.90
2018-07-24T13:48:38.512Z,6.17
2018-07-24T13:53:13.811Z,6.62
2018-07-24T13:57:48.099Z,6.80
2018-07-24T14:02:23.091Z,5.85
2018-07-24T14:06:57.730Z,6.62
2018-07-24T14:11:32.564Z,6.17
2018-07-24T14:16:07.514Z,6.95
2018-07-24T14:20:42.452Z,6.28
2018-07-24T14:25:17.280Z,6.47
2018-07-24T14:29:52.978Z,6.92
2018-07-24T14:34:27.204Z,6.75
2018-07-24T14:39:01.440Z,6.33
2018-07-24T14:43:36.601Z,6.58
2018-07-24T14:48:11.539Z,7.55
2018-07-24T14:52:46.224Z,6.70
2018-07-24T14:57:21.036Z,6.58
2018-07-24T15:01:55.532Z,6.80
2018-07-24T15:06:30.168Z,7.42
2018-07-24T15:11:04.465Z,7.08
2018-07-24T15:15:39.532Z,7.35
2018-07-24T15:20:14.515Z,6.45
2018-07-24T15:24:50.048Z,6.92
2018-07-24T15:29:24.508Z,6.30
2018-07-24T15:34:00.187Z,6.70
2018-07-24T15:38:34.528Z,6.47
2018-07-24T15:43:09.028Z,6.42
2018-07-24T15:47:45.020Z,6.92
2018-07-24T15:52:19.376Z,6.42
2018-07-24T15:56:54.427Z,6.40
2018-07-24T16:01:28.800Z,6.33
2018-07-24T16:06:03.159Z,6.97
2018-07-24T16:10:38.292Z,6.97
2018-07-24T16:15:12.781Z,6.75
2018-07-24T16:19:47.167Z,6.67
2018-07-24T16:24:22.724Z,7.10
2018-07-24T16:28:58.399Z,6.90
2018-07-24T16:33:32.798Z,6.92
2018-07-24T16:38:08.084Z,7.25
2018-07-24T16:42:42.376Z,7.62
2018-07-24T16:47:16.905Z,6.97
2018-07-24T16:51:51.441Z,7.05
2018-07-24T16:56:25.927Z,7.40
2018-07-24T17:01:00.812Z,7.33
2018-07-24T17:05:34.819Z,7.53
2018-07-24T17:10:09.520Z,7.05
2018-07-24T17:14:43.965Z,6.58
2018-07-24T17:19:18.225Z,7.15
2018-07-24T17:23:54.000Z,7.10
2018-07-24T17:28:28.763Z,7.10
2018-07-24T17:33:03.147Z,6.62
2018-07-24T17:37:37.680Z,7.20
2018-07-24T17:42:11.941Z,7.05
2018-07-24T17:46:46.279Z,7.50
2018-07-24T17:51:20.617Z,7.15
2018-07-24T17:55:54.908Z,6.83
2018-07-24T18:00:29.434Z,7.35
2018-07-24T18:05:04.818Z,7.17
2018-07-24T18:09:39.674Z,7.60
2018-07-24T18:14:14.421Z,7.92
2018-07-24T18:18:48.789Z,7.67
2018-07-24T18:23:23.643Z,8.38
2018-07-24T18:27:58.145Z,12.82
2018-07-24T18:32:32.396Z,9.50
2018-07-24T18:37:06.687Z,17.50
2018-07-24T18:41:41.968Z,21.07
2018-07-24T18:46:16.200Z,14.18
2018-07-24T18:50:50.346Z,9.28
2018-07-24T18:55:26.493Z,11.97
2018-07-24T19:00:01.380Z,12.73
2018-07-24T19:04:36.420Z,12.53
2018-07-24T19:09:12.215Z,9.33
2018-07-24T19:13:46.984Z,10.85
2018-07-24T19:18:21.804Z,10.95
2018-07-24T19:22:56.101Z,11.38
2018-07-24T19:27:31.007Z,10.85
2018-07-24T19:32:06.037Z,11.65
2018-07-24T19:36:40.932Z,11.75
2018-07-24T19:41:17.163Z,11.60
2018-07-24T19:45:53.250Z,11.73
2018-07-24T19:50:29.299Z,11.97
2018-07-24T19:55:03.509Z,11.93
2018-07-24T19:59:37.875Z,11.68
2018-07-24T20:04:12.092Z,11.78
2018-07-24T20:08:46.702Z,11.90
2018-07-24T20:13:21.501Z,12.25
2018-07-24T20:17:56.308Z,11.73
2018-07-24T20:22:30.610Z,12.95
2018-07-24T20:27:04.823Z,12.07
2018-07-24T20:31:39.068Z,12.40
2018-07-24T20:36:14.217Z,12.70
2018-07-24T20:40:48.553Z,12.20
2018-07-24T20:45:22.756Z,12.68
2018-07-24T20:49:57.247Z,13.13
2018-07-24T20:54:33.514Z,12.55
2018-07-24T20:59:07.708Z,12.60
2018-07-24T21:03:42.173Z,13.55
2018-07-24T21:08:16.354Z,13.28
2018-07-24T21:12:51.172Z,12.40
2018-07-24T21:17:26.005Z,12.33
2018-07-24T21:22:01.235Z,12.85
2018-07-24T21:26:36.192Z,12.35
2018-07-24T21:31:10.027Z,12.73
2018-07-24T21:35:46.043Z,13.70
2018-07-24T21:40:21.645Z,13.00
2018-07-24T21:44:55.840Z,12.63
2018-07-24T21:49:30.037Z,13.35
2018-07-24T21:54:04.252Z,14.68
2018-07-24T21:58:38.749Z,13.32
2018-07-24T22:03:13.010Z,14.23
2018-07-24T22:07:47.764Z,13.55
2018-07-24T22:12:22.639Z,14.13
2018-07-24T22:16:57.756Z,14.63
2018-07-24T22:21:32.040Z,14.98
2018-07-24T22:26:07.088Z,14.35
2018-07-24T22:30:41.322Z,14.10
2018-07-24T22:35:16.809Z,14.03
2018-07-24T22:39:51.214Z,14.68
2018-07-24T22:44:26.076Z,15.00
2018-07-24T22:49:00.297Z,15.30
2018-07-24T22:53:34.436Z,15.25
2018-07-24T22:58:08.983Z,15.18
2018-07-24T23:02:43.240Z,16.80
2018-07-24T23:07:18.355Z,16.62
2018-07-24T23:11:54.307Z,15.93
2018-07-24T23:16:29.756Z,16.15
2018-07-24T23:21:03.999Z,16.48
2018-07-24T23:25:40.821Z,15.78
2018-07-24T23:30:15.667Z,16.23
2018-07-24T23:34:50.080Z,16.60
2018-07-24T23:39:24.224Z,16.20
2018-07-24T23:43:59.045Z,17.12
2018-07-24T23:48:33.860Z,17.05
2018-07-24T23:53:08.840Z,16.80
2018-07-24T23:57:43.957Z,16.97
